AirNav   Pilot Hours Calculator
 
 816 users online  

AZ78 Arizona Bay Airport
Maricopa, Arizona, USA

GOING TO MARICOPA?


FAA INFORMATION EFFECTIVE 11 AUGUST 2022

Location

FAA Identifier: AZ78
Lat/Long: 33-00-40.0000N 112-16-54.0000W
33-00.666667N 112-16.900000W
33.0111111,-112.2816667
(estimated)
Elevation: 1420 ft. / 433 m (estimated)
Variation: 12E (1990)
From city: 17 miles W of MARICOPA, AZ
Time zone: UTC -7 (year round; does not observe DST)
Zip code: 85239

Airport Operations

Airport use: Private use. Permission required prior to landing
Activation date: 09/1994
Control tower: no
ARTCC: ALBUQUERQUE CENTER
FSS: PRESCOTT FLIGHT SERVICE STATION
Attendance: UNATNDD
Segmented circle: no

Airport Communications

WX AWOS-3 at A39 (18 nm E): 126.900 (520-568-7704)

Nearby radio navigation aids

VOR radial/distance  VOR name  Freq  Var
GBNr067/20.0GILA BEND VORTAC116.6014E
TFDr280/20.2STANFIELD VORTAC114.8012E
PXRr200/29.8PHOENIX VORTAC115.6012E
IWAr228/36.2WILLIE VORTAC113.3013E
BXKr120/38.0BUCKEYE VORTAC110.6014E

Airport Services

Runway Information

Runway 14/32

Dimensions: 2000 x 60 ft. / 610 x 18 m
Surface: dirt
RUNWAY 14  RUNWAY 32
Traffic pattern: leftleft

Airport Ownership and Management from official FAA records

Ownership: Privately-owned
Owner: DILLION AERO, INC
8009 E. DILLIONS WAY
SCOTTSDALE, AZ 85260
Phone 480-333-5450
Manager: KIM IRENE
PO BOX 11682
CHANDLER, AZ 85248
Phone (480) 223-3225

Airport Operational Statistics

Aircraft based on the field: 1
Single engine airplanes: 1
    

Additional Remarks

LANDING WITH WRITTEN PERMISSION.
FOR CD CTC LUKE APCH AT 623-856-7361. IF UNA, CTC PHOENIX APCH AT 602-306-2565.

Instrument Procedures

There are no published instrument procedures at AZ78.

Some nearby airports with instrument procedures:

KGYR - Phoenix Goodyear Airport (25 nm N)
P19 - Stellar Airpark (25 nm NE)
KCGZ - Casa Grande Municipal Airport (26 nm E)
KCHD - Chandler Municipal Airport (28 nm NE)
KPHX - Phoenix Sky Harbor International Airport (29 nm NE)
 
Loc | Ops | Rwys | IFR | FBO | Links
Com | Nav | Svcs | Stats | Notes
Area around AZ78 (Arizona Bay Airport)
 
Road maps at: MapQuest Bing Google
 
Aerial photo
No photo
 
Sectional chart

 
Airport distance calculator
Flying to Arizona Bay Airport? Find the distance to fly.

From to AZ78

Sunrise and sunset
Times for 16-Aug-2022
 Local
(UTC-7)
 Zulu
(UTC)
Morning civil twilight05:2812:28
Sunrise05:5412:54
Sunset19:1302:13
Evening civil twilight19:3902:39

Current date and time
Zulu (UTC)  17-Aug-2022 04:57:33
Local (UTC-7)  16-Aug-2022 21:57:33
 
METAR
KA39 
18nm E 
170435Z AUTO 26005KT 10SM BKN110 32/17 A2986 RMK AO2
KGXF 
23nm W 
170358Z 00000KT 10SM FEW100 BKN200 33/20 A2979 RMK AO2A SLP074 T03300198 $
KGYR 
25nm N 
170347Z 23014KT 10SM FEW070 FEW180 SCT250 35/19 A2978 RMK LAST
KCGZ 
26nm E 
170356Z AUTO 28006KT 10SM CLR 34/17 A2981 RMK AO2 SLP077 T03440167 $
KPHX 
28nm NE 
170451Z 27012KT 10SM FEW100 FEW160 BKN210 BKN250 36/17 A2977 RMK AO2 SLP059 OCNL LTGIC DSNT N AND E CB DSNT N AND E T03560172
KCHD 
28nm NE 
170247Z 22007KT 10SM SCT240 37/17 A2977
KLUF 
31nm N 
170358Z AUTO 22010KT 10SM FEW190 35/18 A2976 RMK AO2 SLP061 T03530179 $
KGEU 
31nm N 
170247Z 23015KT 10SM FEW140 38/17 A2973 RMK LAST
KBXK 
32nm NW 
170455Z AUTO 24005KT 10SM 32/20 A2980 RMK A01
KIWA 
36nm NE 
170447Z 23007KT 10SM CLR 35/18 A2982
TAF
KPHX 
28nm NE 
170238Z 1703/1806 26008KT P6SM SCT150 BKN250 FM170900 10005KT P6SM FEW100 FEW200 FM172100 27010KT P6SM SCT100 BKN250 FM180000 03015G25KT P6SM VCTS SCT080CB BKN120 BKN250 FM180300 01010KT P6SM FEW080 SCT120 BKN250
KLUF 
31nm N 
170400Z 1704/1810 VRB06KT 9999 FEW200 QNH2976INS BECMG 1720/1721 24009KT 9999 FEW150 FEW250 QNH2978INS BECMG 1723/1724 24009KT 9999 VCTS SCT100CB SCT200 QNH2976INS TEMPO 1801/1804 35020G30KT 8000 -TSRA BKN080CB BECMG 1805/1806 9999 NSW SCT100 SCT200 QNH2982INS TX40/1722Z TN29/1713Z
NOTAMs
Click for the latest NOTAMs
NOTAMs are issued by the DoD/FAA and will open in a separate window not controlled by AirNav.

 

 
 

Would you like to see your business listed on this page?

 If your business provides an interesting product or service to pilots, flight crews, aircraft, or users of the Arizona Bay Airport, you should consider listing it here.  To start the listing process, click on the button below
 
Add a business
 

Other Pages about Arizona Bay Airport

Update a link
 
Copyright © AirNav, LLC. All rights reserved. Privacy Policy  Contact